Time;durP1;ratioP1;P1;durP2;ratioP2;P2;SDS_P1;SDS_P2;PMS_P1;PMS_P2;Temp;Humidity;BMP_temperature;BMP_pressure;BME280_temperature;BME280_humidity;BME280_pressure;Samples;Min_cycle;Max_cycle;Signal;HPM_P1;HPM_P2
2023/01/19 00:01:29;;;;;;;7.00;5.30;;;;;;;3.30;59.41;97775.00;5107907;28;20393;-73
2023/01/19 00:03:55;;;;;;;7.35;6.18;;;;;;;3.26;59.43;97850.22;5109553;28;20035;-73
2023/01/19 00:06:24;;;;;;;7.50;6.57;;;;;;;-2.28;58.72;96826.78;5108939;28;20039;-74
2023/01/19 00:08:51;;;;;;;7.00;6.30;;;;;;;3.02;59.38;97840.97;5110180;28;20275;-74
2023/01/19 00:11:19;;;;;;;8.50;6.32;;;;;;;3.15;58.89;97810.66;5109809;28;20031;-75
2023/01/19 00:13:49;;;;;;;6.25;5.65;;;;;;;-3.29;59.10;96916.53;5110073;28;20027;-74
2023/01/19 00:16:17;;;;;;;7.50;6.72;;;;;;;-7.31;58.60;96018.13;5109591;28;20032;-73
2023/01/19 00:18:44;;;;;;;7.45;6.03;;;;;;;3.11;59.34;97762.00;5109315;28;20074;-73
2023/01/19 00:21:13;;;;;;;6.40;5.80;;;;;;;3.10;59.35;97770.75;5108659;28;20040;-72
2023/01/19 00:23:46;;;;;;;7.03;6.00;;;;;;;0.46;58.96;97346.50;5108392;28;20047;-72
2023/01/19 00:26:16;;;;;;;6.38;5.70;;;;;;;1.49;59.01;97586.00;5109482;28;20287;-72
2023/01/19 00:28:49;;;;;;;6.75;6.05;;;;;;;-2.90;59.08;96907.22;5112208;28;20118;-73
2023/01/19 00:31:19;;;;;;;7.10;6.40;;;;;;;1.44;59.59;97534.00;5113697;28;20046;-73
2023/01/19 00:33:47;;;;;;;7.05;6.35;;;;;;;-1.79;59.33;96963.03;5113196;28;20032;-73
2023/01/19 00:36:16;;;;;;;6.75;6.05;;;;;;;2.99;59.68;97767.84;5113240;28;20276;-72
2023/01/19 00:38:44;;;;;;;6.95;6.15;;;;;;;-3.01;59.40;96869.63;5113754;28;20040;-73
2023/01/19 00:41:11;;;;;;;7.80;7.00;;;;;;;2.94;60.15;97822.16;5112537;28;20028;-73
2023/01/19 00:43:38;;;;;;;6.72;6.03;;;;;;;-4.71;59.37;96558.16;5113515;28;20079;-73
2023/01/19 00:46:08;;;;;;;6.65;5.93;;;;;;;-7.32;59.19;96046.47;5113143;28;20040;-73
2023/01/19 00:48:36;;;;;;;7.43;5.90;;;;;;;1.34;60.01;97680.69;5114020;28;20077;-73
2023/01/19 00:51:03;;;;;;;7.18;6.47;;;;;;;1.49;60.16;97518.97;5113901;28;20099;-72
2023/01/19 00:53:31;;;;;;;7.03;6.32;;;;;;;2.86;60.73;97907.13;5113355;28;20292;-73
2023/01/19 00:55:59;;;;;;;6.97;6.13;;;;;;;-7.95;59.95;95955.38;5111907;28;20040;-72
2023/01/19 00:58:33;;;;;;;7.57;6.60;;;;;;;2.83;60.40;97742.44;5113340;28;20070;-73
2023/01/19 01:01:02;;;;;;;9.17;6.70;;;;;;;2.56;60.68;97694.09;5112523;28;20040;-73
2023/01/19 01:03:31;;;;;;;7.88;6.60;;;;;;;2.84;60.64;97748.50;5112815;28;20050;-73
2023/01/19 01:05:59;;;;;;;7.20;6.28;;;;;;;-2.92;61.02;96839.06;5113812;28;20036;-73
2023/01/19 01:08:29;;;;;;;8.63;6.55;;;;;;;-0.31;60.86;97307.47;5113985;28;20032;-73
2023/01/19 01:11:02;;;;;;;7.85;7.05;;;;;;;-0.26;60.60;97346.31;5113030;28;20035;-73
2023/01/19 01:13:39;;;;;;;7.75;6.15;;;;;;;2.81;60.65;97759.97;5111811;28;20044;-73
2023/01/19 01:16:08;;;;;;;8.68;7.30;;;;;;;2.82;60.73;97887.25;5112430;28;20052;-73
2023/01/19 01:18:35;;;;;;;8.65;6.43;;;;;;;-2.91;60.86;96864.91;5112446;28;20036;-73
2023/01/19 01:21:04;;;;;;;7.43;6.70;;;;;;;2.81;60.72;97773.06;5110919;28;20081;-73
2023/01/19 01:23:34;;;;;;;6.75;6.05;;;;;;;-0.48;60.83;97250.13;5112190;28;20063;-74
2023/01/19 01:26:01;;;;;;;6.78;6.18;;;;;;;2.76;60.93;97782.06;5111662;28;20040;-74
2023/01/19 01:28:28;;;;;;;7.45;6.65;;;;;;;2.77;60.90;97928.47;5111424;28;20042;-73
2023/01/19 01:30:56;;;;;;;6.68;6.03;;;;;;;-5.61;60.25;96512.50;5111340;28;20065;-73
2023/01/19 01:33:23;;;;;;;6.53;5.80;;;;;;;-4.57;60.08;96561.03;5111553;28;20321;-73
2023/01/19 01:35:50;;;;;;;7.68;6.90;;;;;;;1.86;60.38;97642.59;5110591;28;20036;-73
2023/01/19 01:38:17;;;;;;;7.43;6.70;;;;;;;2.71;60.62;97779.66;5108115;28;20035;-73
2023/01/19 01:40:44;;;;;;;7.53;6.78;;;;;;;2.72;60.65;97791.81;5108348;28;20055;-73
2023/01/19 01:43:12;;;;;;;7.78;6.60;;;;;;;2.71;60.11;97792.75;5108068;28;20039;-74
2023/01/19 01:45:40;;;;;;;7.20;6.50;;;;;;;2.68;60.23;97800.72;5108323;28;20307;-73
2023/01/19 01:48:12;;;;;;;7.32;6.35;;;;;;;2.68;59.89;97802.50;5108001;28;20044;-73
2023/01/19 01:51:22;;;;;;;6.90;6.20;;;;;;;2.68;59.83;97808.59;5108191;28;20039;-72
2023/01/19 01:53:32;;;;;;;7.97;6.68;;;;;;;2.05;60.05;97727.03;5107734;28;20048;-73
2023/01/19 01:56:00;;;;;;;6.35;5.50;;;;;;;2.69;60.04;97802.44;5108070;28;20040;-73
2023/01/19 01:58:27;;;;;;;7.40;6.45;;;;;;;2.70;60.03;97801.50;5106869;28;20192;-73
2023/01/19 02:03:40;;;;;;;7.35;6.53;;;;;;;2.68;59.92;97802.50;5107917;28;20034;-73
2023/01/19 02:06:08;;;;;;;7.18;6.47;;;;;;;2.69;59.92;97806.81;5108136;28;20058;-73
2023/01/19 02:14:09;;;;;;;6.93;6.22;;;;;;;2.70;59.88;97805.88;5107776;28;20068;-73
2023/01/19 02:16:37;;;;;;;7.63;6.70;;;;;;;2.70;59.77;97804.13;5107661;28;20054;-73
2023/01/19 02:19:07;;;;;;;6.97;6.28;;;;;;;2.71;59.50;97811.06;5108527;28;20036;-72
2023/01/19 02:21:42;;;;;;;7.97;7.03;;;;;;;2.72;59.22;97802.28;5106383;28;20043;-72
2023/01/19 02:24:10;;;;;;;7.03;6.32;;;;;;;2.71;59.58;97797.97;5106305;28;20070;-72
2023/01/19 02:26:39;;;;;;;8.88;7.28;;;;;;;2.75;59.60;97803.91;5107411;28;20044;-72
2023/01/19 02:29:10;;;;;;;7.65;6.85;;;;;;;2.74;59.50;97802.22;5106245;28;20288;-73
2023/01/19 02:31:38;;;;;;;6.60;5.90;;;;;;;2.73;59.45;97803.97;5107037;28;20044;-73
2023/01/19 02:34:07;;;;;;;7.30;6.60;;;;;;;2.73;59.60;97798.75;5106105;28;20047;-72
2023/01/19 02:36:39;;;;;;;8.27;7.30;;;;;;;2.73;59.76;97796.13;5107314;28;20103;-72
2023/01/19 02:39:11;;;;;;;8.50;6.93;;;;;;;2.74;59.87;97813.53;5107050;28;20093;-73
2023/01/19 02:41:41;;;;;;;7.82;7.03;;;;;;;2.74;59.83;97821.38;5107406;28;20035;-73
2023/01/19 02:44:09;;;;;;;8.43;7.30;;;;;;;2.75;59.82;97828.28;5107043;28;20062;-73
2023/01/19 02:46:36;;;;;;;8.48;6.82;;;;;;;2.76;59.83;97835.22;5105895;28;20040;-73
2023/01/19 02:49:03;;;;;;;8.40;6.95;;;;;;;2.58;59.21;97804.72;5106924;28;20043;-73
2023/01/19 02:51:31;;;;;;;7.35;6.53;;;;;;;2.73;59.49;97835.38;5104895;28;20042;-73
2023/01/19 02:54:35;;;;;;;7.13;6.43;;;;;;;2.74;58.15;97818.75;5106925;28;20322;-73
2023/01/19 02:57:26;;;;;;;9.13;6.00;;;;;;;2.72;58.60;97819.75;5106998;28;20062;-73
2023/01/19 03:00:06;;;;;;;7.03;6.30;;;;;;;2.55;58.99;97803.09;5106404;28;20097;-73
2023/01/19 03:02:39;;;;;;;8.18;6.30;;;;;;;2.73;59.51;97813.59;5105424;28;20268;-73
2023/01/19 03:05:18;;;;;;;8.07;6.63;;;;;;;2.71;59.21;97815.44;5106681;28;20203;-73
2023/01/19 03:07:55;;;;;;;6.60;5.90;;;;;;;2.71;59.08;97811.06;5106339;28;20063;-73
2023/01/19 03:10:32;;;;;;;8.35;6.82;;;;;;;2.26;59.07;97740.03;5105441;28;20093;-74
2023/01/19 03:13:05;;;;;;;6.63;5.93;;;;;;;2.71;59.58;97811.06;5106237;28;20050;-73
2023/01/19 03:15:39;;;;;;;7.70;6.40;;;;;;;2.73;59.68;97819.66;5106481;28;20059;-73
2023/01/19 03:18:10;;;;;;;7.93;6.18;;;;;;;2.75;59.61;97817.81;5106113;28;20032;-73
2023/01/19 03:20:39;;;;;;;7.65;6.72;;;;;;;2.77;59.65;97820.38;5106112;28;20086;-72
2023/01/19 03:23:10;;;;;;;7.15;6.25;;;;;;;2.76;59.65;97819.53;5106380;28;20093;-72
2023/01/19 03:25:42;;;;;;;7.40;6.38;;;;;;;2.75;59.36;97833.53;5106306;28;20062;-72
2023/01/19 03:28:09;;;;;;;7.68;6.45;;;;;;;2.16;59.38;97752.69;5105143;28;20036;-72
2023/01/19 03:30:44;;;;;;;7.65;6.85;;;;;;;2.74;59.28;97859.75;5105914;28;20054;-73
2023/01/19 03:33:13;;;;;;;;;;;;;;;2.68;58.08;97860.91;5107016;28;20167;-72
2023/01/19 03:35:47;;;;;;;6.75;5.82;;;;;;;2.68;59.05;97847.81;5105912;28;20175;-73
2023/01/19 03:38:16;;;;;;;7.53;6.45;;;;;;;2.27;59.19;97786.16;5106379;28;20179;-74
2023/01/19 03:40:47;;;;;;;6.85;6.15;;;;;;;2.70;59.09;97855.59;5105858;28;20233;-72
2023/01/19 03:43:16;;;;;;;6.93;6.22;;;;;;;2.70;59.33;97861.69;5105766;28;20032;-72
2023/01/19 03:45:43;;;;;;;7.18;6.47;;;;;;;2.71;59.23;97873.00;5104934;28;20050;-73
2023/01/19 03:48:10;;;;;;;7.15;6.45;;;;;;;2.71;59.14;97876.44;5106012;28;20047;-72
2023/01/19 03:50:37;;;;;;;8.23;7.25;;;;;;;2.71;59.14;97870.38;5104865;28;20043;-73
2023/01/19 03:53:09;;;;;;;6.90;5.93;;;;;;;2.70;58.70;97879.97;5105676;28;20050;-73
2023/01/19 03:55:38;;;;;;;7.35;6.57;;;;;;;2.72;59.07;97896.47;5105594;28;20067;-73
2023/01/19 03:58:06;;;;;;;6.32;5.70;;;;;;;2.74;59.01;97901.63;5105537;28;20093;-73
2023/01/19 04:00:35;;;;;;;7.53;6.82;;;;;;;2.71;59.11;97883.44;5105494;28;20044;-73
2023/01/19 04:03:02;;;;;;;8.48;7.10;;;;;;;2.71;59.16;97886.06;5105272;28;20369;-73
2023/01/19 04:05:28;;;;;;;7.05;6.35;;;;;;;2.70;59.04;97889.59;5104989;28;20081;-74
2023/01/19 04:07:55;;;;;;;8.15;7.25;;;;;;;2.70;59.08;97887.84;5104695;28;20059;-73
2023/01/19 04:10:22;;;;;;;8.15;7.30;;;;;;;2.03;59.17;97786.38;5105550;28;20133;-73
2023/01/19 04:12:49;;;;;;;7.05;6.28;;;;;;;2.70;59.31;97873.91;5104587;28;20317;-73
2023/01/19 04:15:18;;;;;;;8.60;7.13;;;;;;;2.70;59.12;97874.75;5087867;28;20041;-73
2023/01/19 04:17:44;;;;;;;8.10;7.30;;;;;;;2.70;59.31;97866.91;5105411;28;20056;-73
2023/01/19 04:20:12;;;;;;;8.90;8.00;;;;;;;2.71;59.23;97862.53;5104959;28;20183;-74
2023/01/19 04:22:39;;;;;;;7.25;6.55;;;;;;;2.68;59.24;97865.28;5104512;28;20036;-73
2023/01/19 04:25:07;;;;;;;7.50;6.72;;;;;;;2.68;59.22;97860.06;5105893;28;20102;-74
2023/01/19 04:27:34;;;;;;;6.97;6.28;;;;;;;2.68;59.43;97868.75;5105660;28;20059;-73
2023/01/19 04:30:02;;;;;;;8.18;7.22;;;;;;;2.70;59.33;97873.91;5105841;28;20036;-73
2023/01/19 04:32:30;;;;;;;8.05;7.05;;;;;;;2.71;59.23;97873.00;5105770;28;20082;-73
2023/01/19 04:34:57;;;;;;;8.18;6.82;;;;;;;2.73;59.31;97873.75;5105490;28;20044;-73
2023/01/19 04:37:24;;;;;;;8.75;7.72;;;;;;;2.74;59.23;97871.06;5105524;28;20040;-74
2023/01/19 04:39:51;;;;;;;8.32;7.15;;;;;;;2.34;59.14;97811.09;5105607;28;20224;-73
2023/01/19 04:42:17;;;;;;;8.55;7.75;;;;;;;2.75;59.27;97880.63;5105616;28;20040;-74
2023/01/19 04:44:44;;;;;;;9.50;6.43;;;;;;;2.77;59.19;97885.78;5105610;28;20051;-73
2023/01/19 04:47:11;;;;;;;8.75;7.10;;;;;;;2.76;59.23;97892.78;5105347;28;20048;-74
2023/01/19 04:49:39;;;;;;;8.27;7.45;;;;;;;2.59;59.24;97852.63;5104270;28;20032;-74
2023/01/19 04:52:06;;;;;;;8.27;7.10;;;;;;;2.32;59.32;97819.00;5104933;28;20040;-73
2023/01/19 04:54:33;;;;;;;8.63;7.10;;;;;;;2.78;59.20;97883.09;5105522;28;20058;-73
2023/01/19 04:57:00;;;;;;;8.18;7.28;;;;;;;2.78;59.18;97890.09;5104106;28;20040;-74
2023/01/19 04:59:27;;;;;;;8.88;7.95;;;;;;;2.78;59.24;97896.16;5105401;28;20047;-73
2023/01/19 05:01:54;;;;;;;8.43;7.53;;;;;;;2.77;59.21;97907.56;5105121;28;20083;-74
2023/01/19 05:04:21;;;;;;;9.00;8.05;;;;;;;2.30;58.93;97833.06;5105511;28;20051;-74
2023/01/19 05:06:50;;;;;;;7.93;7.13;;;;;;;2.77;59.26;97911.94;5105466;28;20044;-74
2023/01/19 05:09:17;;;;;;;9.00;7.97;;;;;;;2.77;59.41;97915.41;5105074;28;20213;-73
2023/01/19 05:11:44;;;;;;;9.60;7.75;;;;;;;2.78;59.47;97919.72;5105338;28;20355;-73
2023/01/19 05:14:10;;;;;;;9.55;7.90;;;;;;;2.76;59.49;97926.78;5106062;28;20039;-73
2023/01/19 05:16:37;;;;;;;8.35;7.55;;;;;;;2.77;59.67;97922.41;5107545;28;20039;-74
2023/01/19 05:19:04;;;;;;;10.65;8.85;;;;;;;2.76;59.63;97929.41;5107815;28;20203;-73
2023/01/19 05:21:31;;;;;;;9.40;8.38;;;;;;;2.76;59.60;97931.19;5108497;28;20257;-74
2023/01/19 05:23:59;;;;;;;9.70;8.73;;;;;;;2.74;59.41;97933.84;5107487;28;20312;-73
2023/01/19 05:26:26;;;;;;;8.90;7.97;;;;;;;2.76;59.78;97928.56;5108440;28;20048;-73
2023/01/19 05:28:53;;;;;;;9.07;8.10;;;;;;;2.75;59.86;97938.19;5106834;28;20046;-73
2023/01/19 05:31:20;;;;;;;10.32;8.95;;;;;;;2.75;59.94;97939.94;5107293;28;20040;-74
2023/01/19 05:33:47;;;;;;;9.95;8.27;;;;;;;2.74;59.90;97938.25;5108268;28;20238;-74
2023/01/19 05:36:13;;;;;;;10.25;8.73;;;;;;;2.72;60.01;97935.69;5108391;28;20036;-73
2023/01/19 05:38:40;;;;;;;10.23;9.02;;;;;;;2.74;60.18;97933.00;5107960;28;20307;-73
2023/01/19 05:41:08;;;;;;;9.98;8.93;;;;;;;2.74;60.18;97928.63;5108430;28;20078;-73
2023/01/19 05:43:35;;;;;;;9.55;8.40;;;;;;;2.73;60.14;97928.69;5107914;28;20047;-74
2023/01/19 05:46:03;;;;;;;9.82;8.50;;;;;;;2.71;60.38;97926.16;5107649;28;20053;-74
2023/01/19 05:48:30;;;;;;;12.13;8.80;;;;;;;2.74;60.35;97919.94;5106636;28;20040;-74
2023/01/19 05:50:58;;;;;;;11.15;9.10;;;;;;;2.72;60.27;97921.78;5107781;28;20307;-73
2023/01/19 05:53:25;;;;;;;9.80;8.57;;;;;;;2.72;60.29;97919.16;5106931;28;20036;-74
2023/01/19 05:55:51;;;;;;;10.38;8.48;;;;;;;2.29;60.31;97860.13;5107634;28;20059;-74
2023/01/19 05:58:20;;;;;;;9.75;8.60;;;;;;;-0.16;60.31;97447.38;5107851;28;20093;-74
2023/01/19 06:00:46;;;;;;;10.60;8.98;;;;;;;2.74;60.44;97923.41;5107695;28;20051;-73
2023/01/19 06:03:13;;;;;;;9.40;8.50;;;;;;;2.77;60.57;97906.72;5107214;28;20060;-73
2023/01/19 06:05:40;;;;;;;10.18;8.77;;;;;;;2.76;60.40;97908.47;5106955;28;20051;-74
2023/01/19 06:08:07;;;;;;;10.73;9.43;;;;;;;2.77;60.53;97917.16;5107494;28;20199;-73
2023/01/19 06:10:33;;;;;;;10.30;9.20;;;;;;;2.76;60.57;97924.19;5107948;28;20044;-74
2023/01/19 06:13:00;;;;;;;9.93;8.93;;;;;;;2.74;60.41;97923.41;5107275;28;20040;-73
2023/01/19 06:15:28;;;;;;;10.63;8.95;;;;;;;2.74;60.49;97926.00;5107723;28;20050;-73
2023/01/19 06:17:55;;;;;;;10.55;9.45;;;;;;;2.74;60.56;97940.88;5107820;28;20055;-73
2023/01/19 06:20:22;;;;;;;9.80;8.80;;;;;;;2.72;60.72;97951.41;5107134;28;20222;-73
2023/01/19 06:22:48;;;;;;;12.35;8.88;;;;;;;2.73;60.75;97960.09;5106184;28;20047;-73
2023/01/19 06:25:15;;;;;;;11.55;9.50;;;;;;;2.72;60.68;97959.25;5106078;28;20059;-73
2023/01/19 06:27:44;;;;;;;11.43;9.60;;;;;;;2.72;60.54;97958.41;5106962;28;20304;-73
2023/01/19 06:30:11;;;;;;;9.50;8.15;;;;;;;2.70;60.84;97950.63;5106707;28;20063;-73
2023/01/19 06:32:40;;;;;;;11.05;8.48;;;;;;;2.70;60.59;97950.63;5107198;28;20308;-73
2023/01/19 06:35:07;;;;;;;13.10;9.75;;;;;;;2.71;60.86;97947.09;5107227;28;20040;-73
2023/01/19 06:37:34;;;;;;;10.93;9.20;;;;;;;2.73;60.74;97947.88;5105908;28;20345;-73
2023/01/19 06:40:01;;;;;;;10.38;8.98;;;;;;;2.72;60.64;97948.78;5107177;28;20218;-73
2023/01/19 06:42:28;;;;;;;11.07;9.70;;;;;;;2.07;60.72;97845.41;5107234;28;20039;-73
2023/01/19 06:44:55;;;;;;;11.85;9.13;;;;;;;2.72;60.80;97938.31;5106924;28;20361;-73
2023/01/19 06:47:22;;;;;;;10.95;8.48;;;;;;;2.71;60.80;97927.91;5106485;28;20043;-73
2023/01/19 06:49:50;;;;;;;10.93;8.70;;;;;;;2.69;60.86;97928.00;5107147;28;20036;-73
2023/01/19 06:52:18;;;;;;;18.63;10.63;;;;;;;2.68;60.74;97921.06;5107139;28;20040;-73
2023/01/19 06:54:46;;;;;;;13.18;9.80;;;;;;;2.08;60.93;97815.75;5106838;28;20054;-73
2023/01/19 06:57:13;;;;;;;11.35;9.50;;;;;;;2.67;60.95;97908.91;5106513;28;20058;-73
2023/01/19 06:59:40;;;;;;;10.13;8.90;;;;;;;2.69;60.92;97911.44;5106684;28;20304;-73
2023/01/19 07:02:06;;;;;;;11.02;9.25;;;;;;;2.70;61.01;97928.84;5106160;28;20051;-73
2023/01/19 07:04:33;;;;;;;11.82;9.38;;;;;;;2.69;60.93;97948.06;5106871;28;20103;-73
2023/01/19 07:07:01;;;;;;;10.65;8.27;;;;;;;2.68;60.98;97965.53;5105371;28;20040;-73
2023/01/19 07:09:28;;;;;;;11.63;9.40;;;;;;;2.68;61.04;97972.53;5106780;28;20048;-73
2023/01/19 07:11:55;;;;;;;11.15;9.60;;;;;;;2.66;61.10;97972.59;5106141;28;20234;-73
2023/01/19 07:14:22;;;;;;;10.63;8.80;;;;;;;2.49;60.95;97946.34;5106484;28;20044;-73
2023/01/19 07:16:48;;;;;;;11.45;8.55;;;;;;;2.66;60.96;97995.28;5106420;28;20050;-73
2023/01/19 07:19:15;;;;;;;9.65;7.85;;;;;;;2.68;60.97;98004.78;5106426;28;20066;-73
2023/01/19 07:21:42;;;;;;;8.90;7.97;;;;;;;2.69;60.93;98005.63;5106331;28;20051;-73
2023/01/19 07:24:10;;;;;;;8.95;7.93;;;;;;;2.69;60.85;98016.09;5106466;28;20047;-73
2023/01/19 07:26:37;;;;;;;8.00;6.90;;;;;;;2.66;60.97;98008.38;5105914;28;20048;-72
2023/01/19 07:29:03;;;;;;;9.45;7.18;;;;;;;2.70;60.85;98023.03;5106279;28;20097;-73
2023/01/19 07:31:30;;;;;;;11.23;7.57;;;;;;;2.69;60.79;98018.72;5106312;28;20048;-73
2023/01/19 07:33:59;;;;;;;8.90;7.43;;;;;;;2.70;60.94;98010.78;5104923;28;20043;-72
2023/01/19 07:36:25;;;;;;;8.63;7.65;;;;;;;2.70;60.78;98010.78;5105494;28;20064;-73
2023/01/19 07:38:52;;;;;;;9.35;7.80;;;;;;;2.71;60.85;98019.47;5105991;28;20051;-72
2023/01/19 07:41:21;;;;;;;11.68;8.75;;;;;;;2.72;60.82;98011.56;5106272;28;20105;-73
2023/01/19 07:43:50;;;;;;;9.00;7.65;;;;;;;2.72;60.86;97985.41;5106252;28;20051;-73
2023/01/19 07:46:17;;;;;;;9.48;8.50;;;;;;;2.73;60.83;97973.19;5105719;28;20047;-73
2023/01/19 07:48:45;;;;;;;10.13;9.02;;;;;;;2.73;60.99;97968.78;5105774;28;20050;-73
2023/01/19 07:51:16;;;;;;;9.00;7.55;;;;;;;2.75;60.98;97966.09;5104857;28;20115;-73
2023/01/19 07:53:43;;;;;;;8.85;7.82;;;;;;;2.75;60.96;97958.25;5106146;28;20047;-73
2023/01/19 07:56:11;;;;;;;8.77;7.88;;;;;;;2.75;60.99;97953.03;5105909;28;20040;-73
2023/01/19 07:58:39;;;;;;;8.50;7.53;;;;;;;2.06;60.98;97856.78;5105953;28;20040;-73
2023/01/19 08:01:08;;;;;;;12.68;9.25;;;;;;;2.69;61.15;97976.84;5104407;28;20040;-73
2023/01/19 08:03:34;;;;;;;9.90;8.25;;;;;;;2.70;61.19;97992.47;5105464;28;20055;-73
2023/01/19 08:06:03;;;;;;;11.63;10.13;;;;;;;2.71;61.29;97981.09;5106027;28;20051;-73
2023/01/19 08:08:31;;;;;;;9.18;8.18;;;;;;;2.71;61.37;97982.84;5104565;28;20268;-73
2023/01/19 08:10:58;;;;;;;8.50;7.60;;;;;;;2.70;61.32;97989.84;5104638;28;20043;-73
2023/01/19 08:13:26;;;;;;;11.98;8.82;;;;;;;2.71;61.29;97993.31;5104577;28;20040;-73
2023/01/19 08:15:54;;;;;;;10.93;8.90;;;;;;;2.72;61.36;98002.88;5105988;28;20043;-73
2023/01/19 08:18:21;;;;;;;8.15;7.32;;;;;;;2.73;61.31;98028.13;5105616;28;20103;-73
2023/01/19 08:20:48;;;;;;;9.40;8.40;;;;;;;2.69;61.38;98026.56;5104369;28;20055;-72
2023/01/19 08:23:16;;;;;;;8.35;7.20;;;;;;;2.71;61.30;98038.66;5105713;28;20175;-72
2023/01/19 08:25:44;;;;;;;9.40;8.38;;;;;;;2.72;61.48;98042.97;5104753;28;20040;-73
2023/01/19 08:28:13;;;;;;;9.52;8.35;;;;;;;2.73;61.16;98044.66;5104281;28;20202;-73
2023/01/19 08:30:43;;;;;;;10.10;8.45;;;;;;;2.62;61.41;98025.97;5104034;28;20295;-72
2023/01/19 08:33:12;;;;;;;9.48;8.45;;;;;;;2.75;61.53;98042.81;5104925;28;20050;-73
2023/01/19 08:35:41;;;;;;;11.55;8.38;;;;;;;2.77;61.32;98034.91;5105345;28;20043;-73
2023/01/19 08:38:09;;;;;;;10.50;8.38;;;;;;;2.80;61.32;98029.53;5105166;28;20063;-72
2023/01/19 08:40:38;;;;;;;9.02;7.57;;;;;;;2.81;61.49;98029.47;5104616;28;20047;-73
2023/01/19 08:43:07;;;;;;;9.23;7.78;;;;;;;2.80;61.23;98024.31;5105304;28;20046;-73
2023/01/19 08:45:35;;;;;;;8.85;7.60;;;;;;;2.84;61.31;98021.47;5105269;28;20048;-73
2023/01/19 08:48:02;;;;;;;9.52;8.55;;;;;;;1.90;61.41;97872.28;5103859;28;20036;-73
2023/01/19 08:50:32;;;;;;;10.38;8.77;;;;;;;2.86;61.25;98024.88;5107296;28;20036;-73
2023/01/19 08:53:00;;;;;;;10.18;8.38;;;;;;;2.91;61.22;98031.66;5107710;28;20119;-73
2023/01/19 08:55:27;;;;;;;10.18;9.05;;;;;;;2.01;61.17;97878.81;5107595;28;20039;-73
2023/01/19 08:57:56;;;;;;;8.63;7.72;;;;;;;0.11;60.77;97559.13;5109038;28;20055;-73
2023/01/19 09:00:26;;;;;;;9.05;8.05;;;;;;;2.96;61.02;98043.63;5108768;28;20169;-72
2023/01/19 09:02:53;;;;;;;8.75;6.88;;;;;;;2.95;61.03;98043.69;5108343;28;20250;-73
2023/01/19 09:05:20;;;;;;;10.27;8.15;;;;;;;2.97;60.91;98042.72;5107519;28;20131;-73
2023/01/19 09:07:48;;;;;;;8.77;7.88;;;;;;;2.41;60.91;97962.38;5108511;28;20048;-72
2023/01/19 09:10:16;;;;;;;9.27;7.80;;;;;;;2.84;60.93;98016.25;5108717;28;20055;-73
2023/01/19 09:12:43;;;;;;;10.48;7.72;;;;;;;3.04;60.91;98051.13;5108874;28;20031;-73
2023/01/19 09:15:12;;;;;;;9.10;7.45;;;;;;;3.06;60.90;98058.00;5108415;28;20040;-73
2023/01/19 09:17:39;;;;;;;9.07;7.47;;;;;;;3.09;60.79;98054.41;5108359;28;20063;-73
2023/01/19 09:20:07;;;;;;;8.60;7.03;;;;;;;3.12;60.71;98044.63;5108526;28;20043;-73
2023/01/19 09:22:34;;;;;;;9.00;7.53;;;;;;;3.14;60.66;98050.66;5108292;28;20052;-72
2023/01/19 09:25:02;;;;;;;7.65;6.78;;;;;;;3.15;60.37;98046.25;5108772;28;20036;-72
2023/01/19 09:27:29;;;;;;;7.88;6.97;;;;;;;3.15;60.40;98049.72;5107207;28;20036;-73
2023/01/19 09:29:56;;;;;;;7.45;6.75;;;;;;;3.17;60.20;98042.66;5108713;28;20039;-73
2023/01/19 09:32:22;;;;;;;8.15;6.80;;;;;;;3.16;60.19;98053.19;5107331;28;20043;-73
2023/01/19 09:34:49;;;;;;;8.55;7.05;;;;;;;3.03;60.12;98038.97;5107031;28;20043;-73
2023/01/19 09:37:16;;;;;;;7.30;6.38;;;;;;;3.17;60.13;98053.13;5108208;28;20044;-73
2023/01/19 09:39:43;;;;;;;8.60;6.43;;;;;;;3.21;59.96;98045.97;5107891;28;20044;-73
2023/01/19 09:42:20;;;;;;;11.00;6.07;;;;;;;3.21;59.50;98043.34;5107129;28;20032;-72
2023/01/19 09:44:49;;;;;;;7.43;6.57;;;;;;;3.19;59.88;98042.56;5108464;28;20050;-72
2023/01/19 09:47:20;;;;;;;9.52;6.93;;;;;;;3.20;59.72;98052.13;5106998;28;20036;-73
2023/01/19 09:49:52;;;;;;;6.57;5.57;;;;;;;3.16;59.52;98053.19;5107150;28;20208;-73
2023/01/19 09:52:20;;;;;;;8.75;6.53;;;;;;;3.18;59.73;98053.97;5108109;28;20054;-73
2023/01/19 09:54:52;;;;;;;7.45;6.50;;;;;;;3.22;59.81;98052.91;5107834;28;20042;-73
2023/01/19 09:57:21;;;;;;;7.82;7.03;;;;;;;3.27;59.79;98043.06;5107926;28;20102;-73
2023/01/19 09:59:50;;;;;;;8.45;7.55;;;;;;;3.29;59.65;98051.69;5107165;28;20070;-73
2023/01/19 10:02:32;;;;;;;7.70;6.47;;;;;;;3.31;59.25;98057.72;5107439;28;20264;-73
2023/01/19 10:05:01;;;;;;;7.55;6.40;;;;;;;2.65;59.37;97946.50;5108232;28;20204;-72
2023/01/19 10:07:55;;;;;;;7.97;5.90;;;;;;;3.37;58.51;98052.19;5107415;28;20103;-73
2023/01/19 10:10:25;;;;;;;7.03;6.18;;;;;;;3.39;59.36;98044.28;5106612;28;20349;-73
2023/01/19 10:13:02;;;;;;;6.45;5.60;;;;;;;2.84;58.80;97948.22;5107418;28;20066;-73
2023/01/19 10:15:39;;;;;;;7.10;6.18;;;;;;;3.50;58.71;98052.47;5107365;28;20099;-73
2023/01/19 10:18:16;;;;;;;7.05;5.97;;;;;;;3.54;58.23;98040.91;5107933;28;20350;-73
2023/01/19 10:20:48;;;;;;;7.88;5.97;;;;;;;3.59;58.99;98049.41;5107337;28;20053;-73
2023/01/19 10:23:25;;;;;;;9.90;6.43;;;;;;;3.65;58.56;98054.34;5106237;28;20040;-73
2023/01/19 10:25:52;;;;;;;7.68;6.03;;;;;;;3.68;58.81;98055.97;5107604;28;20106;-73
2023/01/19 10:28:25;;;;;;;9.48;6.15;;;;;;;3.72;58.44;98047.91;5106015;28;20042;-73
2023/01/19 10:30:55;;;;;;;7.95;6.70;;;;;;;3.76;58.52;98057.31;5107066;28;20044;-73
2023/01/19 10:33:22;;;;;;;10.40;7.80;;;;;;;3.82;58.56;98043.91;5107246;28;20303;-73
2023/01/19 10:35:49;;;;;;;8.55;7.22;;;;;;;3.89;58.50;98046.22;5107617;28;20050;-73
2023/01/19 10:38:20;;;;;;;7.45;6.63;;;;;;;3.92;58.33;98041.69;5106996;28;20055;-72
2023/01/19 10:40:53;;;;;;;8.43;6.95;;;;;;;3.93;58.20;98051.25;5105892;28;20195;-73
2023/01/19 10:43:38;;;;;;;9.15;7.43;;;;;;;3.75;57.38;98016.31;5106749;28;20058;-72
2023/01/19 10:46:06;;;;;;;;;;;;;;;3.90;56.89;98055.78;5107894;28;20252;-73
2023/01/19 10:48:38;;;;;;;7.85;6.97;;;;;;;3.93;57.73;98039.91;5106693;28;19995;-73
2023/01/19 10:51:06;;;;;;;7.65;6.57;;;;;;;3.99;58.16;98035.22;5106407;28;20093;-73
2023/01/19 10:53:33;;;;;;;9.85;7.43;;;;;;;4.01;57.96;98048.25;5106539;28;20059;-73
2023/01/19 10:56:25;;;;;;;7.78;6.70;;;;;;;4.00;56.68;98050.03;5106632;28;20046;-73
2023/01/19 10:58:53;;;;;;;9.60;7.63;;;;;;;4.00;57.85;98051.81;5106620;28;20119;-74
2023/01/19 11:01:24;;;;;;;8.65;7.00;;;;;;;4.03;57.80;98057.75;5105457;28;20299;-73
2023/01/19 11:03:52;;;;;;;7.40;6.65;;;;;;;4.01;57.49;98054.34;5105720;28;20036;-73
2023/01/19 11:06:21;;;;;;;8.95;7.20;;;;;;;3.99;56.78;98056.19;5106507;28;20047;-73
2023/01/19 11:08:51;;;;;;;7.28;6.03;;;;;;;4.00;56.89;98062.28;5105524;28;20032;-73
2023/01/19 11:11:18;;;;;;;9.05;7.05;;;;;;;3.97;56.98;98052.81;5105402;28;20036;-73
2023/01/19 11:14:01;;;;;;;6.43;5.68;;;;;;;4.03;56.74;98057.75;5106459;28;20356;-73
2023/01/19 11:16:33;;;;;;;10.63;6.78;;;;;;;3.59;56.34;97988.31;5106408;28;20042;-73
2023/01/19 11:19:02;;;;;;;8.20;6.72;;;;;;;3.44;56.49;97956.69;5106730;28;20044;-73
2023/01/19 11:21:31;;;;;;;7.35;6.13;;;;;;;4.04;56.37;98055.97;5106015;28;20086;-73
2023/01/19 11:24:04;;;;;;;6.03;5.43;;;;;;;3.96;55.90;98061.59;5106068;28;20044;-73
2023/01/19 11:26:34;;;;;;;9.13;5.05;;;;;;;3.90;55.74;98072.38;5105113;28;20312;-73
2023/01/19 11:29:04;;;;;;;6.38;5.60;;;;;;;3.86;55.92;98065.59;5106345;28;20078;-73
2023/01/19 11:31:34;;;;;;;6.07;5.00;;;;;;;3.37;55.04;98004.22;5106449;28;20048;-73
2023/01/19 11:34:03;;;;;;;6.20;5.22;;;;;;;3.71;54.59;98079.41;5106121;28;20275;-73
2023/01/19 11:36:32;;;;;;;8.50;5.00;;;;;;;3.21;54.23;98014.56;5105749;28;20036;-73
2023/01/19 11:39:13;;;;;;;7.32;4.85;;;;;;;3.64;53.72;98071.00;5104853;28;20042;-73
2023/01/19 11:41:41;;;;;;;4.80;4.10;;;;;;;3.59;53.61;98072.16;5106130;28;20044;-73
2023/01/19 11:44:18;;;;;;;6.07;4.72;;;;;;;3.57;51.64;98087.09;5105953;28;20135;-73
2023/01/19 11:46:52;;;;;;;5.45;4.15;;;;;;;3.56;52.48;98075.75;5106215;28;20318;-72
2023/01/19 11:49:26;;;;;;;7.68;4.53;;;;;;;3.55;53.00;98086.31;5106165;28;20036;-73
2023/01/19 11:51:59;;;;;;;6.70;4.95;;;;;;;3.56;52.80;98069.66;5105635;28;20091;-73
2023/01/19 11:54:33;;;;;;;5.93;5.32;;;;;;;3.59;52.17;98073.00;5106125;28;20051;-72
2023/01/19 11:57:01;;;;;;;7.03;5.22;;;;;;;3.61;53.64;98076.38;5106392;28;20177;-73